Airfield :
LOGIN :

Register | Disclaimer

   EN    FR    IT 

 










Legend :    VFR   Marginal VFR   IFR   Intensive IFR   Very Intensive IFR
Visi :
Ceiling :
>= 8 km
>= 3000ft
5 to 8 km
1000 to 3000 ft
1500m to 5 km
500 to 1000 ft
800 to 1500m
200 to 500 ft
< 800m
< 200 ft
Symbols :   Thunderstorms  Fog  Heavy snow  Heavy precipitations  Wind > 20 kt
SIGMETs :     Misc.  Thunderstorms  Icing  Turbulence  Mountain Waves  Volcanic Ashes







- Airport Elevation : 297 ft
- IATA code : UIP
- Download approach charts


LFRQ - Quimper Pluguffan

CURRENT METAR :
  • 280330Z AUTO 31007KT 9999 OVC010 15/14 Q1000

EXPIRED METARs :
  • 280300Z AUTO 31008KT 9999 OVC008 15/14 Q1000
  • 280230Z AUTO 32009KT 9999 -RA SCT008 BKN030 BKN052 15/14 Q1000
  • 280200Z AUTO 30011KT 9999 -RA OVC007/// ///TCU 15/14 Q1001
  • 280130Z AUTO 27007KT 5000 RA BR BKN003/// BKN009/// OVC045/// ///CB 15/15 Q1001
  • 280100Z AUTO 23004KT 9999 -DZ OVC003/// ///TCU 16/15 Q1001

Expired Forecast.
No reported NOTAMs for that airfield.
1 SIGMET reported for the Brest FIR (LFRR) :
 
Embedded thunderstorms
LFRR SIGMET 1 VALID 280300/280500 LFPW
LFRR BREST FIR/UIR EMBD TS OBS WI N4600 W00800 - N4715 W00800 - N4530 W00600 - N4500 W00700 TOP FL280 MOV E 20KT NC=



MET'MAP, your aeronautical weather chart ! - Copyright ORBIFLY December 2007 - Disclaimer

ORBIFLY MET'MAP TEAM :

Programming & Development : Alexandra Zaïnal
Concept & Development : Baudouin d'Aumeries
Co-Development & Prog : Marc-Olivier Méhu
Technical & hardware support : Manuel Goepfert

Contact : metmap@orbifly.com




SOURCES & CREDITS :

   NOAA